createdAt,value
2018-01-04T00:01:12.942Z,8.20
2018-01-04T00:03:39.196Z,7.60
2018-01-04T00:06:05.526Z,8.13
2018-01-04T00:08:31.796Z,6.75
2018-01-04T00:10:58.089Z,1.95
2018-01-04T00:13:24.370Z,11.25
2018-01-04T00:15:50.627Z,4.18
2018-01-04T00:18:17.660Z,8.52
2018-01-04T00:20:43.949Z,13.50
2018-01-04T00:23:10.325Z,3.33
2018-01-04T00:25:37.368Z,5.15
2018-01-04T00:28:03.648Z,7.70
2018-01-04T00:30:29.945Z,6.60
2018-01-04T00:32:56.945Z,8.00
2018-01-04T00:35:23.239Z,8.20
2018-01-04T00:37:49.537Z,9.50
2018-01-04T00:40:16.539Z,3.62
2018-01-04T00:42:44.734Z,5.15
2018-01-04T00:47:42.881Z,11.55
2018-01-04T00:50:09.149Z,9.68
2018-01-04T00:52:35.431Z,8.50
2018-01-04T00:55:01.716Z,12.48
2018-01-04T00:57:27.995Z,5.30
2018-01-04T00:59:54.288Z,7.05
2018-01-04T01:02:20.567Z,4.85
2018-01-04T01:04:46.878Z,6.60
2018-01-04T01:07:13.134Z,3.00
2018-01-04T01:09:39.399Z,4.72
2018-01-04T01:12:05.695Z,18.20
2018-01-04T01:14:31.972Z,15.52
2018-01-04T01:16:58.987Z,3.78
2018-01-04T01:19:25.267Z,11.80
2018-01-04T01:21:51.560Z,5.87
2018-01-04T01:24:17.839Z,3.00
2018-01-04T01:26:44.108Z,11.98
2018-01-04T01:29:10.366Z,4.85
2018-01-04T01:31:37.383Z,7.78
2018-01-04T01:34:03.637Z,9.35
2018-01-04T01:36:29.945Z,9.07
2018-01-04T01:38:56.226Z,8.40
2018-01-04T01:41:22.507Z,4.18
2018-01-04T01:43:48.784Z,13.30
2018-01-04T01:46:15.021Z,4.57
2018-01-04T01:48:41.300Z,5.97
2018-01-04T01:51:07.566Z,7.55
2018-01-04T01:53:33.843Z,5.90
2018-01-04T01:56:00.105Z,11.45
2018-01-04T01:58:26.382Z,3.87
2018-01-04T02:00:52.641Z,4.00
2018-01-04T02:03:18.912Z,4.62
2018-01-04T02:05:46.696Z,3.17
2018-01-04T02:08:12.939Z,11.50
2018-01-04T02:10:39.214Z,8.55
2018-01-04T02:13:05.488Z,10.25
2018-01-04T02:15:31.767Z,8.02
2018-01-04T02:18:10.181Z,5.25
2018-01-04T02:20:48.557Z,10.32
2018-01-04T02:23:26.994Z,2.50
2018-01-04T02:25:53.275Z,8.43
2018-01-04T02:28:31.808Z,9.65
2018-01-04T02:31:10.333Z,5.72
2018-01-04T02:33:48.756Z,3.65
2018-01-04T02:36:27.138Z,6.25
2018-01-04T02:42:04.621Z,7.45
2018-01-04T02:44:38.685Z,15.55
2018-01-04T02:47:04.977Z,12.25
2018-01-04T02:49:31.275Z,5.37
2018-01-04T02:51:57.557Z,13.88
2018-01-04T02:54:23.843Z,5.75
2018-01-04T02:56:50.120Z,13.60
2018-01-04T02:59:16.383Z,6.43
2018-01-04T03:01:42.680Z,8.15
2018-01-04T03:04:08.988Z,11.55
2018-01-04T03:06:35.287Z,8.13
2018-01-04T03:09:01.561Z,6.15
2018-01-04T03:11:27.868Z,3.67
2018-01-04T03:13:54.134Z,8.43
2018-01-04T03:16:20.418Z,11.07
2018-01-04T03:18:47.460Z,7.60
2018-01-04T03:21:14.463Z,9.13
2018-01-04T03:23:40.806Z,14.38
2018-01-04T03:26:13.223Z,7.43
2018-01-04T03:28:45.634Z,6.10
2018-01-04T03:31:17.986Z,11.95
2018-01-04T03:33:50.275Z,5.07
2018-01-04T03:36:22.517Z,5.05
2018-01-04T03:38:54.951Z,8.77
2018-01-04T03:41:41.064Z,6.00
2018-01-04T03:44:14.074Z,9.55
2018-01-04T03:46:46.426Z,6.25
2018-01-04T03:52:23.224Z,3.70
2018-01-04T03:54:55.610Z,3.35
2018-01-04T03:57:27.875Z,7.72
2018-01-04T04:00:00.279Z,11.27
2018-01-04T04:02:32.631Z,6.28
2018-01-04T04:05:04.940Z,5.25
2018-01-04T04:07:31.209Z,9.23
2018-01-04T04:09:58.200Z,10.70
2018-01-04T04:12:25.225Z,3.90
2018-01-04T04:14:51.506Z,6.53
2018-01-04T04:17:17.771Z,5.68
2018-01-04T04:19:44.078Z,9.18
2018-01-04T04:22:11.122Z,7.78
2018-01-04T04:24:37.388Z,4.78
2018-01-04T04:27:03.696Z,4.22
2018-01-04T04:29:30.753Z,7.55
2018-01-04T04:31:57.057Z,7.40
2018-01-04T04:34:23.367Z,3.67
2018-01-04T04:36:49.682Z,9.98
2018-01-04T04:39:15.958Z,9.27
2018-01-04T04:41:42.996Z,5.47
2018-01-04T04:44:10.032Z,3.92
2018-01-04T04:46:36.330Z,6.18
2018-01-04T04:49:02.635Z,8.93
2018-01-04T04:51:28.901Z,2.33
2018-01-04T04:53:55.216Z,2.62
2018-01-04T04:56:21.488Z,4.53
2018-01-04T04:58:47.738Z,4.18
2018-01-04T05:01:14.035Z,6.20
2018-01-04T05:03:40.299Z,2.08
2018-01-04T05:06:07.315Z,3.83
2018-01-04T05:08:33.589Z,3.08
2018-01-04T05:10:59.842Z,9.18
2018-01-04T05:13:26.124Z,2.37
2018-01-04T05:15:53.162Z,2.80
2018-01-04T05:18:19.417Z,9.77
2018-01-04T05:20:45.685Z,1.77
2018-01-04T05:23:11.963Z,4.62
2018-01-04T05:25:38.999Z,5.55
2018-01-04T05:28:06.085Z,6.97
2018-01-04T05:30:32.372Z,2.28
2018-01-04T05:32:58.656Z,4.78
2018-01-04T05:35:24.950Z,7.72
2018-01-04T05:37:51.969Z,4.22
2018-01-04T05:40:18.256Z,4.87
2018-01-04T05:42:44.568Z,8.32
2018-01-04T05:45:10.883Z,2.60
2018-01-04T05:47:37.885Z,2.50
2018-01-04T05:50:04.141Z,1.80
2018-01-04T05:52:30.417Z,3.92
2018-01-04T05:54:56.691Z,3.58
2018-01-04T05:57:22.966Z,3.60
2018-01-04T05:59:49.219Z,2.97
2018-01-04T06:02:15.485Z,4.12
2018-01-04T06:04:41.776Z,1.45
2018-01-04T06:07:08.046Z,3.03
2018-01-04T06:09:34.328Z,4.72
2018-01-04T06:12:00.646Z,3.55
2018-01-04T06:14:26.865Z,6.28
2018-01-04T06:16:53.152Z,3.75
2018-01-04T06:19:19.413Z,4.30
2018-01-04T06:21:46.465Z,4.20
2018-01-04T06:24:12.744Z,3.83
2018-01-04T06:26:39.073Z,7.00
2018-01-04T06:29:05.329Z,3.45
2018-01-04T06:34:03.502Z,2.95
2018-01-04T06:36:29.757Z,1.27
2018-01-04T06:38:56.785Z,5.45
2018-01-04T06:41:23.086Z,2.05
2018-01-04T06:43:49.372Z,1.98
2018-01-04T06:46:16.443Z,2.03
2018-01-04T06:48:42.747Z,3.28
2018-01-04T06:51:09.812Z,2.58
2018-01-04T06:53:36.098Z,1.25
2018-01-04T06:56:02.396Z,1.50
2018-01-04T06:58:28.703Z,2.85
2018-01-04T07:00:55.026Z,2.22
2018-01-04T07:03:22.066Z,2.58
2018-01-04T07:05:49.088Z,3.60
2018-01-04T07:08:15.363Z,3.28
2018-01-04T07:10:41.664Z,1.48
2018-01-04T07:13:08.705Z,0.90
2018-01-04T07:15:35.783Z,0.75
2018-01-04T07:18:02.045Z,1.05
2018-01-04T07:20:28.323Z,3.45
2018-01-04T07:22:55.341Z,3.33
2018-01-04T07:25:21.618Z,2.55
2018-01-04T07:27:47.906Z,1.40
2018-01-04T07:30:14.167Z,3.15
2018-01-04T07:32:41.180Z,1.62
2018-01-04T07:35:07.457Z,1.12
2018-01-04T07:37:33.703Z,0.57
2018-01-04T07:39:59.989Z,1.40
2018-01-04T07:42:27.029Z,2.35
2018-01-04T07:44:54.072Z,5.47
2018-01-04T07:47:21.186Z,1.17
2018-01-04T07:49:47.540Z,2.90
2018-01-04T07:52:13.866Z,2.75
2018-01-04T07:54:40.195Z,2.40
2018-01-04T07:57:06.518Z,2.20
2018-01-04T07:59:32.831Z,2.45
2018-01-04T08:01:59.114Z,0.80
2018-01-04T08:04:26.135Z,1.40
2018-01-04T08:06:52.473Z,3.42
2018-01-04T08:09:19.532Z,1.60
2018-01-04T08:11:45.773Z,2.10
2018-01-04T08:14:12.791Z,1.83
2018-01-04T08:16:39.108Z,1.00
2018-01-04T08:19:05.403Z,1.00
2018-01-04T08:21:31.717Z,0.65
2018-01-04T08:23:58.021Z,0.70
2018-01-04T08:26:24.350Z,1.98
2018-01-04T08:28:51.392Z,0.60
2018-01-04T08:31:17.680Z,1.77
2018-01-04T08:33:44.715Z,2.58
2018-01-04T08:36:10.998Z,0.82
2018-01-04T08:38:37.330Z,0.70
2018-01-04T08:41:03.638Z,3.60
2018-01-04T08:43:29.952Z,0.82
2018-01-04T08:45:56.250Z,1.30
2018-01-04T08:48:22.533Z,2.28
2018-01-04T08:50:48.831Z,1.85
2018-01-04T08:53:15.156Z,1.25
2018-01-04T08:55:41.485Z,3.33
2018-01-04T08:58:07.802Z,2.00
2018-01-04T09:00:34.085Z,1.00
2018-01-04T09:03:00.423Z,2.78
2018-01-04T09:05:26.688Z,0.90
2018-01-04T09:07:52.998Z,1.50
2018-01-04T09:10:20.038Z,0.77
2018-01-04T09:12:46.390Z,1.27
2018-01-04T09:15:13.417Z,1.55
2018-01-04T09:17:39.689Z,1.42
2018-01-04T09:20:05.981Z,1.75
2018-01-04T09:22:32.251Z,1.05
2018-01-04T09:24:58.558Z,2.95
2018-01-04T09:27:24.894Z,1.02
2018-01-04T09:29:51.242Z,0.88
2018-01-04T09:32:17.560Z,1.30
2018-01-04T09:34:43.845Z,1.33
2018-01-04T09:37:10.133Z,1.73
2018-01-04T09:39:36.396Z,1.10
2018-01-04T09:42:02.663Z,1.00
2018-01-04T09:44:28.999Z,1.05
2018-01-04T09:46:56.054Z,0.85
2018-01-04T09:49:22.383Z,0.70
2018-01-04T09:51:48.722Z,1.42
2018-01-04T09:54:15.063Z,0.80
2018-01-04T09:56:41.359Z,1.30
2018-01-04T09:59:08.448Z,0.98
2018-01-04T10:01:34.770Z,0.80
2018-01-04T10:04:01.101Z,0.82
2018-01-04T10:06:27.411Z,1.25
2018-01-04T10:08:53.680Z,1.40
2018-01-04T10:11:20.026Z,1.45
2018-01-04T10:13:46.338Z,2.95
2018-01-04T10:16:12.656Z,1.10
2018-01-04T10:18:38.965Z,1.50
2018-01-04T10:21:05.282Z,0.88
2018-01-04T10:23:32.308Z,7.75
2018-01-04T10:25:58.620Z,2.33
2018-01-04T10:28:24.957Z,0.80
2018-01-04T10:30:51.255Z,0.93
2018-01-04T10:33:17.560Z,1.05
2018-01-04T10:35:43.833Z,1.50
2018-01-04T10:38:10.143Z,0.82
2018-01-04T10:40:36.404Z,0.90
2018-01-04T10:43:02.673Z,0.90
2018-01-04T10:45:29.708Z,0.90
2018-01-04T10:47:55.983Z,0.90
2018-01-04T10:50:22.262Z,1.12
2018-01-04T10:52:49.263Z,0.70
2018-01-04T10:55:15.566Z,5.57
2018-01-04T10:57:41.882Z,1.05
2018-01-04T11:00:08.954Z,0.75
2018-01-04T11:02:35.275Z,1.98
2018-01-04T11:05:01.591Z,2.50
2018-01-04T11:07:28.668Z,1.83
2018-01-04T11:09:54.990Z,1.80
2018-01-04T11:12:21.328Z,1.30
2018-01-04T11:14:47.638Z,1.15
2018-01-04T11:17:13.958Z,0.90
2018-01-04T11:19:41.026Z,0.95
2018-01-04T11:22:07.295Z,1.02
2018-01-04T11:24:33.641Z,1.08
2018-01-04T11:26:59.948Z,2.20
2018-01-04T11:29:26.238Z,1.37
2018-01-04T11:31:52.538Z,1.90
2018-01-04T11:34:18.848Z,1.70
2018-01-04T11:36:45.239Z,2.37
2018-01-04T11:39:11.558Z,2.78
2018-01-04T11:41:37.882Z,2.80
2018-01-04T11:44:04.957Z,6.80
2018-01-04T11:46:31.265Z,2.60
2018-01-04T11:48:58.301Z,3.55
2018-01-04T11:51:25.362Z,1.67
2018-01-04T11:53:51.678Z,1.40
2018-01-04T11:56:18.725Z,12.30
2018-01-04T11:58:45.772Z,2.33
2018-01-04T12:01:12.829Z,1.95
2018-01-04T12:03:39.185Z,3.92
2018-01-04T12:06:05.530Z,9.40
2018-01-04T12:08:31.870Z,2.30
2018-01-04T12:10:58.226Z,2.58
2018-01-04T12:13:24.531Z,2.65
2018-01-04T12:15:50.846Z,1.65
2018-01-04T12:18:17.134Z,1.83
2018-01-04T12:20:44.178Z,3.45
2018-01-04T12:23:11.217Z,3.40
2018-01-04T12:25:37.524Z,1.67
2018-01-04T12:28:03.823Z,1.50
2018-01-04T12:30:30.161Z,5.28
2018-01-04T12:32:56.495Z,2.05
2018-01-04T12:35:22.841Z,1.65
2018-01-04T12:37:49.137Z,7.32
2018-01-04T12:40:15.479Z,1.37
2018-01-04T12:42:42.714Z,4.28
2018-01-04T12:45:09.196Z,6.80
2018-01-04T12:47:36.281Z,3.90
2018-01-04T12:50:03.336Z,3.95
2018-01-04T12:52:30.359Z,0.98
2018-01-04T12:54:58.770Z,1.92
2018-01-04T12:57:25.104Z,3.03
2018-01-04T12:59:51.447Z,2.22
2018-01-04T13:02:17.771Z,4.93
2018-01-04T13:04:44.090Z,1.90
2018-01-04T13:07:10.374Z,2.10
2018-01-04T13:09:36.663Z,3.08
2018-01-04T13:12:02.959Z,6.12
2018-01-04T13:14:29.990Z,13.68
2018-01-04T13:16:56.284Z,11.60
2018-01-04T13:19:22.591Z,8.23
2018-01-04T13:21:48.897Z,7.97
2018-01-04T13:24:15.936Z,9.45
2018-01-04T13:26:42.225Z,3.47
2018-01-04T13:29:08.497Z,3.30
2018-01-04T13:31:34.802Z,3.33
2018-01-04T13:34:01.085Z,3.70
2018-01-04T13:36:27.378Z,2.55
2018-01-04T13:38:53.673Z,1.40
2018-01-04T13:41:19.961Z,2.20
2018-01-04T13:43:46.997Z,2.00
2018-01-04T13:46:14.061Z,1.40
2018-01-04T13:48:41.046Z,1.15
2018-01-04T13:51:07.361Z,1.60
2018-01-04T13:53:33.660Z,2.83
2018-01-04T13:56:00.716Z,1.95
2018-01-04T13:58:26.981Z,1.50
2018-01-04T14:00:53.276Z,2.45
2018-01-04T14:03:19.570Z,1.58
2018-01-04T14:05:45.862Z,2.55
2018-01-04T14:08:12.212Z,5.22
2018-01-04T14:10:38.508Z,5.68
2018-01-04T14:13:04.810Z,4.18
2018-01-04T14:15:31.878Z,2.53
2018-01-04T14:17:58.157Z,2.45
2018-01-04T14:20:24.498Z,7.85
2018-01-04T14:22:50.792Z,8.90
2018-01-04T14:25:17.187Z,3.58
2018-01-04T14:27:43.539Z,3.42
2018-01-04T14:30:09.825Z,4.50
2018-01-04T14:32:36.125Z,6.50
2018-01-04T14:35:02.463Z,3.70
2018-01-04T14:37:28.747Z,2.72
2018-01-04T14:39:55.814Z,2.95
2018-01-04T14:42:22.110Z,3.60
2018-01-04T14:44:49.163Z,5.37
2018-01-04T14:47:15.463Z,2.50
2018-01-04T14:49:41.737Z,2.45
2018-01-04T14:52:08.086Z,3.35
2018-01-04T14:54:34.376Z,2.60
2018-01-04T14:57:01.442Z,3.12
2018-01-04T14:59:27.776Z,2.97
2018-01-04T15:01:54.116Z,4.03
2018-01-04T15:04:20.409Z,4.40
2018-01-04T15:06:47.424Z,6.57
2018-01-04T15:09:13.739Z,3.60
2018-01-04T15:11:40.014Z,2.28
2018-01-04T15:14:07.123Z,3.10
2018-01-04T15:16:33.417Z,3.53
2018-01-04T15:18:59.719Z,12.60
2018-01-04T15:21:26.070Z,5.85
2018-01-04T15:23:52.365Z,4.37
2018-01-04T15:26:18.686Z,6.40
2018-01-04T15:28:45.020Z,3.95
2018-01-04T15:31:11.338Z,1.83
2018-01-04T15:33:37.646Z,3.03
2018-01-04T15:36:03.944Z,2.20
2018-01-04T15:38:31.036Z,2.72
2018-01-04T15:40:57.360Z,4.15
2018-01-04T15:43:23.716Z,6.10
2018-01-04T15:45:50.064Z,5.30
2018-01-04T15:48:17.147Z,4.40
2018-01-04T15:50:43.476Z,5.78
2018-01-04T15:53:09.769Z,6.90
2018-01-04T15:55:37.064Z,9.05
2018-01-04T15:58:03.365Z,10.30
2018-01-04T16:00:30.393Z,7.80
2018-01-04T16:02:56.687Z,9.10
2018-01-04T16:05:22.990Z,5.28
2018-01-04T16:07:49.584Z,10.27
2018-01-04T16:10:15.938Z,5.97
2018-01-04T16:12:42.994Z,5.85
2018-01-04T16:15:10.097Z,9.13
2018-01-04T16:17:36.403Z,4.35
2018-01-04T16:20:02.790Z,4.47
2018-01-04T16:22:29.107Z,6.85
2018-01-04T16:24:55.426Z,9.55
2018-01-04T16:27:21.718Z,7.85
2018-01-04T16:29:48.039Z,11.05
2018-01-04T16:32:14.354Z,6.45
2018-01-04T16:34:40.650Z,5.37
2018-01-04T16:37:06.942Z,5.53
2018-01-04T16:39:33.252Z,4.07
2018-01-04T16:42:00.294Z,6.78
2018-01-04T16:44:28.078Z,6.72
2018-01-04T16:46:54.344Z,7.20
2018-01-04T16:49:20.624Z,10.52
2018-01-04T16:51:47.694Z,16.12
2018-01-04T16:54:14.014Z,12.80
2018-01-04T16:56:40.298Z,10.48
2018-01-04T16:59:06.619Z,8.02
2018-01-04T17:01:32.944Z,5.57
2018-01-04T17:03:59.240Z,6.68
2018-01-04T17:06:25.543Z,9.70
2018-01-04T17:08:52.589Z,9.32
2018-01-04T17:11:19.651Z,7.62
2018-01-04T17:13:46.713Z,10.30
2018-01-04T17:16:13.052Z,6.85
2018-01-04T17:18:39.381Z,7.75
2018-01-04T17:21:05.732Z,5.97
2018-01-04T17:23:32.042Z,7.20
2018-01-04T17:25:58.356Z,12.75
2018-01-04T17:28:25.422Z,13.65
2018-01-04T17:30:51.718Z,9.90
2018-01-04T17:33:18.776Z,10.35
2018-01-04T17:35:45.156Z,7.70
2018-01-04T17:38:11.517Z,7.70
2018-01-04T17:40:38.608Z,7.65
2018-01-04T17:43:05.039Z,11.10
2018-01-04T17:45:31.450Z,16.60
2018-01-04T17:47:57.786Z,7.78
2018-01-04T17:50:24.209Z,13.15
2018-01-04T17:52:51.277Z,9.60
2018-01-04T17:55:17.589Z,11.30
2018-01-04T17:57:44.721Z,14.18
2018-01-04T18:00:11.433Z,9.48
2018-01-04T18:02:38.990Z,10.65
2018-01-04T18:05:05.486Z,10.68
2018-01-04T18:07:31.864Z,12.32
2018-01-04T18:09:58.224Z,11.73
2018-01-04T18:12:25.319Z,10.90
2018-01-04T18:14:51.688Z,8.32
2018-01-04T18:17:18.067Z,8.35
2018-01-04T18:19:44.555Z,9.27
2018-01-04T18:22:11.685Z,8.20
2018-01-04T18:24:38.103Z,8.30
2018-01-04T18:27:04.523Z,12.30
2018-01-04T18:29:30.934Z,6.05
2018-01-04T18:31:57.365Z,6.62
2018-01-04T18:34:23.776Z,4.55
2018-01-04T18:36:50.921Z,4.60
2018-01-04T18:39:17.313Z,8.40
2018-01-04T18:41:43.652Z,8.07
2018-01-04T18:44:10.862Z,7.90
2018-01-04T18:46:37.238Z,8.32
2018-01-04T18:49:03.656Z,6.05
2018-01-04T18:51:30.064Z,4.12
2018-01-04T18:53:56.444Z,4.05
2018-01-04T18:56:22.887Z,9.75
2018-01-04T18:58:49.236Z,6.40
2018-01-04T19:01:16.340Z,5.55
2018-01-04T19:03:42.716Z,6.00
2018-01-04T19:06:09.853Z,3.03
2018-01-04T19:08:36.263Z,2.83
2018-01-04T19:11:02.674Z,3.37
2018-01-04T19:13:29.093Z,2.90
2018-01-04T19:15:55.506Z,1.98
2018-01-04T19:18:21.924Z,1.85
2018-01-04T19:20:49.090Z,1.45
2018-01-04T19:23:15.486Z,1.02
2018-01-04T19:25:41.907Z,1.17
2018-01-04T19:28:08.332Z,1.35
2018-01-04T19:30:34.771Z,0.90
2018-01-04T19:33:01.168Z,1.15
2018-01-04T19:35:27.534Z,0.82
2018-01-04T19:37:53.933Z,1.17
2018-01-04T19:40:20.360Z,1.90
2018-01-04T19:42:46.782Z,1.45
2018-01-04T19:45:13.253Z,1.40
2018-01-04T19:47:39.620Z,2.00
2018-01-04T19:50:06.877Z,1.65
2018-01-04T19:52:34.032Z,2.80
2018-01-04T19:55:01.213Z,4.28
2018-01-04T19:57:27.653Z,1.25
2018-01-04T19:59:54.070Z,1.30
2018-01-04T20:02:20.463Z,1.20
2018-01-04T20:04:46.894Z,1.50
2018-01-04T20:07:13.302Z,1.60
2018-01-04T20:09:39.684Z,1.95
2018-01-04T20:12:06.129Z,1.85
2018-01-04T20:14:32.545Z,1.60
2018-01-04T20:16:59.713Z,1.65
2018-01-04T20:19:26.099Z,1.83
2018-01-04T20:21:52.470Z,1.35
2018-01-04T20:24:19.587Z,2.90
2018-01-04T20:26:46.016Z,2.78
2018-01-04T20:29:12.470Z,2.22
2018-01-04T20:31:39.709Z,2.05
2018-01-04T20:34:06.873Z,1.17
2018-01-04T20:36:34.026Z,2.05
2018-01-04T20:39:01.152Z,2.15
2018-01-04T20:41:27.649Z,1.92
2018-01-04T20:43:54.043Z,1.95
2018-01-04T20:46:20.482Z,2.67
2018-01-04T20:48:46.854Z,1.30
2018-01-04T20:51:13.295Z,1.50
2018-01-04T20:53:39.777Z,5.93
2018-01-04T20:56:06.912Z,1.65
2018-01-04T20:58:34.091Z,0.85
2018-01-04T21:01:00.531Z,2.62
2018-01-04T21:03:26.946Z,1.00
2018-01-04T21:05:54.091Z,1.50
2018-01-04T21:08:20.499Z,0.88
2018-01-04T21:10:46.959Z,1.12
2018-01-04T21:13:14.097Z,2.62
2018-01-04T21:15:41.293Z,1.27
2018-01-04T21:18:07.677Z,0.70
2018-01-04T21:20:34.851Z,1.60
2018-01-04T21:23:01.268Z,1.92
2018-01-04T21:25:28.403Z,0.95
2018-01-04T21:27:54.846Z,1.02
2018-01-04T21:30:22.017Z,1.17
2018-01-04T21:32:48.441Z,20.88
2018-01-04T21:35:14.847Z,1.20
2018-01-04T21:37:41.396Z,17.70
2018-01-04T21:40:07.763Z,1.55
2018-01-04T21:42:34.488Z,1.20
2018-01-04T21:45:00.909Z,2.42
2018-01-04T21:47:27.329Z,0.80
2018-01-04T21:49:54.488Z,1.40
2018-01-04T21:52:21.647Z,0.98
2018-01-04T21:54:48.063Z,0.50
2018-01-04T21:57:15.193Z,0.80
2018-01-04T21:59:41.925Z,0.98
2018-01-04T22:02:08.392Z,0.75
2018-01-04T22:04:35.570Z,2.03
2018-01-04T22:07:02.019Z,0.80
2018-01-04T22:09:28.472Z,0.80
2018-01-04T22:11:54.962Z,0.70
2018-01-04T22:14:21.408Z,0.62
2018-01-04T22:16:47.828Z,1.03
2018-01-04T22:19:14.239Z,2.03
2018-01-04T22:21:41.382Z,1.00
2018-01-04T22:24:07.742Z,0.67
2018-01-04T22:26:34.127Z,0.57
2018-01-04T22:29:00.740Z,0.73
2018-01-04T22:31:27.080Z,0.53
2018-01-04T22:33:53.436Z,0.70
2018-01-04T22:36:19.833Z,0.70
2018-01-04T22:38:46.944Z,0.80
2018-01-04T22:41:14.069Z,1.30
2018-01-04T22:43:40.406Z,0.62
2018-01-04T22:46:06.767Z,0.63
2018-01-04T22:48:33.076Z,0.60
2018-01-04T22:50:59.430Z,0.70
2018-01-04T22:53:25.782Z,0.50
2018-01-04T22:55:52.139Z,0.60
2018-01-04T22:58:18.459Z,0.60
2018-01-04T23:00:47.700Z,0.80
2018-01-04T23:03:14.067Z,0.70
2018-01-04T23:05:40.462Z,0.70
2018-01-04T23:08:06.746Z,0.60
2018-01-04T23:10:33.118Z,4.83
2018-01-04T23:12:59.409Z,0.40
2018-01-04T23:15:25.728Z,0.83
2018-01-04T23:17:52.022Z,0.50
2018-01-04T23:20:18.330Z,0.40
2018-01-04T23:22:44.614Z,0.60
2018-01-04T23:25:10.918Z,0.60
2018-01-04T23:27:37.954Z,0.47
2018-01-04T23:30:04.228Z,0.80
2018-01-04T23:32:30.568Z,0.70
2018-01-04T23:34:56.895Z,1.70
2018-01-04T23:37:23.198Z,0.50
2018-01-04T23:39:49.490Z,0.70
2018-01-04T23:42:15.779Z,0.57
2018-01-04T23:44:42.043Z,0.60
2018-01-04T23:47:08.313Z,0.50
2018-01-04T23:49:35.318Z,0.60
2018-01-04T23:52:01.637Z,0.97
2018-01-04T23:54:27.960Z,0.80
2018-01-04T23:56:54.280Z,0.67
2018-01-04T23:59:20.565Z,0.80
